Terminal Aerodrome Forecast
Issued by NWS

Home | Current Version | Previous Version | Text Only | Print | Product List | Glossary On
Versions: 1 2 3 4 5 6 7 8 9 10 11 12 13 14 15 16 17
000
FTUS43 KABR 240500
TAFATY
TAF
KATY 240520Z 2406/2506 13010KT P6SM BKN120
     FM240900 10004KT 5SM BR VCSH OVC010
     FM241200 35009KT 6SM -SHRA BR SCT015 BKN090 OVC120
     FM241600 32014G22KT P6SM FEW100 BKN250
     FM250100 30008KT P6SM SKC=

USA.gov is the U.S. government's official web portal to all federal, state and local government web resources and services.